Bow, New Hampshire
Current Conditions -  °F | °C
As of 8:23 AM on Thursday 18 Dec 2014 (Local Time) from KCON Reporting Station
Overcast Overcast  
Wind Chill: 30°   Ceiling: 3500
Heat Index: 36°   Visibility: 10mi
Dew Point: 31°   Wind: 7mph
Humidity: 82%   Direction: 280°W
Pressure: 29.74"   Gusts: NA
Location:  43.14°N, 71.54°W
Report Text: KCON 181323Z AUTO 28006KT 10SM FEW021 BKN035 OVC046 02/M01 A2974 RMK AO2 UPB03E15 P0000 T00221006
Loading
Personal Weather Stations






























Interactive Weather Map New forecast layout! Learn more

10-Day Weather Forecast

Advertisements
Track Severe Weather on mobile